createdAt,value
2022-09-24T00:00:13.950Z,1.60
2022-09-24T00:14:13.896Z,1.50
2022-09-24T00:28:13.915Z,1.30
2022-09-24T00:42:13.925Z,1.50
2022-09-24T00:56:13.900Z,1.40
2022-09-24T01:10:14.101Z,1.40
2022-09-24T01:24:14.089Z,1.40
2022-09-24T01:38:14.176Z,1.35
2022-09-24T01:52:14.192Z,1.25
2022-09-24T02:06:14.215Z,1.25
2022-09-24T02:20:14.270Z,1.15
2022-09-24T02:34:14.305Z,1.00
2022-09-24T02:48:14.376Z,1.00
2022-09-24T03:02:14.420Z,1.10
2022-09-24T03:16:14.382Z,1.00
2022-09-24T03:30:14.283Z,0.90
2022-09-24T03:44:14.292Z,0.80
2022-09-24T03:58:14.354Z,0.80
2022-09-24T04:12:14.389Z,0.80
2022-09-24T04:26:14.413Z,0.80
2022-09-24T04:40:14.452Z,0.70
2022-09-24T04:54:14.396Z,0.70
2022-09-24T05:09:14.756Z,0.70
2022-09-24T05:24:14.599Z,0.70
2022-09-24T05:39:14.599Z,0.80
2022-09-24T05:54:14.641Z,1.30
2022-09-24T06:10:14.650Z,2.20
2022-09-24T06:25:14.667Z,1.80
2022-09-24T06:40:14.836Z,1.70
2022-09-24T06:55:14.747Z,1.50
2022-09-24T07:10:14.736Z,1.80
2022-09-24T07:25:14.796Z,1.50
2022-09-24T07:41:14.771Z,1.60
2022-09-24T07:57:14.768Z,1.70
2022-09-24T08:13:14.792Z,1.70
2022-09-24T08:29:14.792Z,1.50
2022-09-24T08:45:14.811Z,1.50
2022-09-24T09:01:14.913Z,1.50
2022-09-24T09:16:14.906Z,1.40
2022-09-24T09:31:14.898Z,1.60
2022-09-24T09:47:14.892Z,1.35
2022-09-24T10:02:14.941Z,1.60
2022-09-24T10:17:14.894Z,1.40
2022-09-24T10:32:14.920Z,9.30
2022-09-24T10:47:14.914Z,8.10
2022-09-24T11:02:14.966Z,8.60
2022-09-24T11:17:14.939Z,8.00
2022-09-24T11:32:14.928Z,7.15
2022-09-24T11:47:14.963Z,6.60
2022-09-24T12:02:15.082Z,6.10
2022-09-24T12:17:15.043Z,5.80
2022-09-24T12:32:15.060Z,5.40
2022-09-24T12:48:15.069Z,5.50
2022-09-24T13:04:15.116Z,4.70
2022-09-24T13:20:15.128Z,9.20
2022-09-24T13:36:15.118Z,7.80
2022-09-24T13:52:15.177Z,5.95
2022-09-24T14:07:15.222Z,5.60
2022-09-24T14:23:15.414Z,5.60
2022-09-24T14:39:15.432Z,5.10
2022-09-24T14:54:15.451Z,4.70
2022-09-24T15:10:15.473Z,5.20
2022-09-24T15:25:15.503Z,4.10
2022-09-24T15:41:15.525Z,4.00
2022-09-24T15:57:15.576Z,3.60
2022-09-24T16:12:15.643Z,3.40
2022-09-24T16:28:15.725Z,3.00
2022-09-24T16:44:15.797Z,2.80
2022-09-24T17:00:15.890Z,2.50
2022-09-24T17:15:15.922Z,2.30
2022-09-24T17:31:16.015Z,2.30
2022-09-24T17:46:15.956Z,2.20
2022-09-24T18:00:15.871Z,3.80
2022-09-24T18:14:15.936Z,3.20
2022-09-24T18:28:18.679Z,3.60
2022-09-24T18:42:16.288Z,3.10
2022-09-24T18:56:16.017Z,2.90
2022-09-24T19:10:15.976Z,3.20
2022-09-24T19:24:16.929Z,3.10
2022-09-24T19:38:16.921Z,2.95
2022-09-24T19:52:16.115Z,3.05
2022-09-24T20:06:16.160Z,3.70
2022-09-24T20:20:16.178Z,4.55
2022-09-24T20:34:17.090Z,4.00
2022-09-24T20:48:16.206Z,4.00
2022-09-24T21:02:16.294Z,4.00
2022-09-24T21:16:16.281Z,3.80
2022-09-24T21:30:17.136Z,4.00
2022-09-24T21:44:17.232Z,3.30
2022-09-24T21:58:17.241Z,2.90
2022-09-24T22:12:16.564Z,3.20
2022-09-24T22:26:16.667Z,2.90
2022-09-24T22:40:17.811Z,2.80
2022-09-24T22:54:16.944Z,2.70
2022-09-24T23:08:17.201Z,2.60
2022-09-24T23:22:17.191Z,2.30
2022-09-24T23:36:17.170Z,2.20
2022-09-24T23:50:17.163Z,2.30
